AFR248 LFPG-RPLL
Flight info
| Callsign | AFR248 |
|---|---|
| Flight time | N/A |
| Altitude | 33000 |
| Route | LANVI DCT LUPEN/N0483F350 UM164 UTABA DCT INPUL DCT VATET DCT MOPUG DCT ASNEL DCT UDROS DCT ABSAX DCT REBLO/N0485F370 DCT MATAL T916 SUBUT M747 LUSAL N199 RASAM L88 METKA B476 DARVA/K0889F370 T898 OGOLI N193 DIBAD/K0900F390 N193 SR L163 TISIB L141 KAMUD/K0893S1190 W186 SADAN Y1 OMBON W245 OVRAL B330 IDBOR/K0900S1250 B330 KWE W181 DUDIT A599 POU B330 TAMOT/N0480F410 B330 BIGEX DCT POVAM DCT NOPER V642 NOMAN A461 AVMUP W16 TADEL TADEL3R |
| Aircraft | A359/H-SDE2E3GHIJ3J4J5LM1ORWXY/LB1D1 |
Departure
| Time | N/A |
|---|---|
| Airport | Charles de Gaulle International Airport (LFPG) |
Arrival
| Time | 2026-05-04 07:47 |
|---|---|
| Airport | Ninoy Aquino International Airport (RPLL) |
| Time | Latitude | Longitude | Altitude | Speed | Heading |
|---|---|---|---|---|---|
| 2026-05-04 05:39 | 23.84126 | 108.19031 | 41190 ft | 525 kts | 147° |
| 2026-05-04 05:39 | 23.81385 | 108.21681 | 41190 ft | 531 kts | 136° |
| 2026-05-04 05:40 | 23.79102 | 108.24888 | 41193 ft | 536 kts | 124° |
| 2026-05-04 05:41 | 23.76354 | 108.41231 | 41194 ft | 537 kts | 76° |
| 2026-05-04 05:41 | 23.77427 | 108.45140 | 41199 ft | 533 kts | 64° |
| 2026-05-04 05:41 | 23.79459 | 108.52903 | 41195 ft | 540 kts | 81° |
| 2026-05-04 05:42 | 23.79586 | 108.61120 | 41196 ft | 542 kts | 92° |
| 2026-05-04 05:42 | 23.79145 | 108.69349 | 41194 ft | 543 kts | 93° |
| 2026-05-04 05:43 | 23.78616 | 108.77464 | 41195 ft | 544 kts | 94° |
| 2026-05-04 05:45 | 23.76600 | 109.10389 | 41189 ft | 544 kts | 93° |
| 2026-05-04 05:47 | 23.70702 | 109.42645 | 41180 ft | 544 kts | 103° |
| 2026-05-04 05:47 | 23.69063 | 109.50706 | 41178 ft | 544 kts | 103° |
| 2026-05-04 05:48 | 23.67422 | 109.58781 | 41180 ft | 544 kts | 103° |
| 2026-05-04 05:48 | 23.65781 | 109.66849 | 41177 ft | 544 kts | 103° |
| 2026-05-04 05:49 | 23.64115 | 109.74914 | 41179 ft | 544 kts | 103° |
| 2026-05-04 05:49 | 23.62452 | 109.82925 | 41178 ft | 544 kts | 103° |
| 2026-05-04 05:51 | 23.55754 | 110.15085 | 41169 ft | 544 kts | 103° |
| 2026-05-04 05:52 | 23.54067 | 110.23132 | 41171 ft | 544 kts | 103° |
| 2026-05-04 05:52 | 23.52385 | 110.31135 | 41166 ft | 544 kts | 103° |
| 2026-05-04 05:54 | 23.45790 | 110.63353 | 41159 ft | 545 kts | 103° |
| 2026-05-04 05:55 | 23.44140 | 110.71420 | 41162 ft | 545 kts | 103° |
| 2026-05-04 05:55 | 23.42478 | 110.79418 | 41161 ft | 545 kts | 104° |
| 2026-05-04 05:56 | 23.40785 | 110.87394 | 41158 ft | 545 kts | 104° |
| 2026-05-04 05:56 | 23.39071 | 110.95458 | 41157 ft | 546 kts | 104° |
| 2026-05-04 05:57 | 23.37357 | 111.03526 | 41161 ft | 546 kts | 104° |
| 2026-05-04 05:57 | 23.35647 | 111.11570 | 41160 ft | 546 kts | 104° |
| 2026-05-04 05:58 | 23.33958 | 111.19583 | 41162 ft | 546 kts | 103° |
| 2026-05-04 05:58 | 23.32313 | 111.27663 | 41160 ft | 546 kts | 103° |
| 2026-05-04 05:59 | 23.30673 | 111.35734 | 41159 ft | 546 kts | 103° |
| 2026-05-04 05:59 | 23.29019 | 111.43808 | 41158 ft | 546 kts | 103° |
| 2026-05-04 06:00 | 23.27356 | 111.51877 | 41155 ft | 547 kts | 103° |
| 2026-05-04 06:00 | 23.25679 | 111.59935 | 41160 ft | 546 kts | 104° |
| 2026-05-04 06:01 | 23.23975 | 111.67944 | 41151 ft | 546 kts | 104° |
| 2026-05-04 06:03 | 23.17192 | 112.00166 | 41160 ft | 546 kts | 103° |
| 2026-05-04 06:05 | 23.09910 | 112.34907 | 41148 ft | 544 kts | 104° |
| 2026-05-04 06:06 | 23.08219 | 112.42917 | 41150 ft | 544 kts | 104° |
| 2026-05-04 06:06 | 23.06888 | 112.51010 | 41149 ft | 544 kts | 96° |
| 2026-05-04 06:07 | 23.06252 | 112.59212 | 41149 ft | 545 kts | 94° |
| 2026-05-04 06:07 | 23.05719 | 112.67386 | 41141 ft | 545 kts | 94° |
| 2026-05-04 06:08 | 23.05183 | 112.75596 | 41145 ft | 545 kts | 94° |
| 2026-05-04 06:08 | 23.04630 | 112.83793 | 41147 ft | 545 kts | 94° |
| 2026-05-04 06:09 | 23.04065 | 112.91995 | 41142 ft | 545 kts | 94° |
| 2026-05-04 06:11 | 22.97744 | 113.23407 | 41141 ft | 530 kts | 135° |
| 2026-05-04 06:13 | 22.76482 | 113.45301 | 41144 ft | 527 kts | 141° |
| 2026-05-04 06:14 | 22.57826 | 113.64333 | 41147 ft | 526 kts | 141° |
| 2026-05-04 06:15 | 22.52481 | 113.69769 | 41147 ft | 526 kts | 141° |
| 2026-05-04 06:15 | 22.47148 | 113.75187 | 41145 ft | 526 kts | 141° |
| 2026-05-04 06:16 | 22.41814 | 113.80601 | 41142 ft | 525 kts | 141° |
| 2026-05-04 06:16 | 22.36604 | 113.85892 | 41052 ft | 506 kts | 141° |
| 2026-05-04 06:17 | 22.31704 | 113.91172 | 41047 ft | 502 kts | 136° |
| 2026-05-04 06:17 | 22.27039 | 113.96820 | 41045 ft | 504 kts | 135° |
| 2026-05-04 06:18 | 22.22373 | 114.02470 | 41042 ft | 503 kts | 136° |
| 2026-05-04 06:20 | 22.05071 | 114.26233 | 41024 ft | 503 kts | 131° |
| 2026-05-04 06:21 | 21.94280 | 114.41005 | 41015 ft | 502 kts | 132° |
| 2026-05-04 06:22 | 21.89986 | 114.46876 | 41016 ft | 502 kts | 132° |
| 2026-05-04 06:25 | 21.59801 | 114.87982 | 41007 ft | 499 kts | 132° |
| 2026-05-04 06:26 | 21.55491 | 114.93825 | 41006 ft | 500 kts | 132° |
| 2026-05-04 06:26 | 21.51144 | 114.99708 | 41000 ft | 509 kts | 132° |
| 2026-05-04 06:27 | 21.39938 | 115.14858 | 40999 ft | 520 kts | 131° |
| 2026-05-04 06:28 | 21.35435 | 115.20938 | 41003 ft | 520 kts | 131° |
| 2026-05-04 06:28 | 21.30933 | 115.27007 | 41001 ft | 519 kts | 131° |
| 2026-05-04 06:29 | 21.26431 | 115.33068 | 40997 ft | 519 kts | 131° |
| 2026-05-04 06:29 | 21.21595 | 115.38689 | 40996 ft | 515 kts | 138° |
| 2026-05-04 06:30 | 21.16529 | 115.44138 | 40991 ft | 514 kts | 139° |
| 2026-05-04 06:30 | 21.11446 | 115.49538 | 40996 ft | 514 kts | 139° |
| 2026-05-04 06:31 | 21.06375 | 115.54929 | 40994 ft | 514 kts | 139° |
| 2026-05-04 06:31 | 21.01334 | 115.60297 | 40992 ft | 513 kts | 139° |
| 2026-05-04 06:33 | 20.81074 | 115.81833 | 40988 ft | 512 kts | 139° |
| 2026-05-04 06:34 | 20.76040 | 115.87171 | 40988 ft | 512 kts | 139° |
| 2026-05-04 06:34 | 20.70980 | 115.92531 | 40985 ft | 512 kts | 139° |
| 2026-05-04 06:36 | 20.50798 | 116.13854 | 40982 ft | 510 kts | 139° |
| 2026-05-04 06:37 | 20.45780 | 116.19143 | 40978 ft | 510 kts | 139° |
| 2026-05-04 06:37 | 20.40774 | 116.24414 | 40979 ft | 510 kts | 139° |
| 2026-05-04 06:38 | 20.35723 | 116.29727 | 40975 ft | 509 kts | 139° |
| 2026-05-04 06:40 | 20.15616 | 116.50828 | 40973 ft | 508 kts | 139° |
| 2026-05-04 06:40 | 20.10570 | 116.56110 | 40972 ft | 508 kts | 139° |
| 2026-05-04 06:41 | 20.05531 | 116.61380 | 40970 ft | 508 kts | 139° |
| 2026-05-04 06:41 | 20.00491 | 116.66647 | 40970 ft | 507 kts | 139° |
| 2026-05-04 06:42 | 19.95578 | 116.72047 | 40967 ft | 509 kts | 135° |
| 2026-05-04 06:44 | 19.76600 | 116.94295 | 40968 ft | 508 kts | 135° |
| 2026-05-04 06:44 | 19.71815 | 116.99821 | 40966 ft | 508 kts | 135° |
| 2026-05-04 06:45 | 19.67037 | 117.05337 | 40962 ft | 507 kts | 135° |
| 2026-05-04 06:45 | 19.62257 | 117.10853 | 40960 ft | 507 kts | 135° |
| 2026-05-04 06:46 | 19.57484 | 117.16354 | 40960 ft | 507 kts | 135° |
| 2026-05-04 06:46 | 19.52749 | 117.21808 | 40959 ft | 506 kts | 135° |
| 2026-05-04 06:48 | 19.33710 | 117.43685 | 40956 ft | 505 kts | 135° |
| 2026-05-04 06:50 | 19.14660 | 117.65494 | 40951 ft | 503 kts | 135° |
| 2026-05-04 06:51 | 19.09921 | 117.70905 | 40948 ft | 505 kts | 135° |
| 2026-05-04 06:51 | 19.05151 | 117.76349 | 40947 ft | 505 kts | 135° |
| 2026-05-04 06:52 | 19.00378 | 117.81791 | 40948 ft | 505 kts | 135° |
| 2026-05-04 06:52 | 18.96377 | 117.86349 | 40942 ft | 505 kts | 135° |
| 2026-05-04 06:53 | 18.91600 | 117.91784 | 40945 ft | 505 kts | 135° |
| 2026-05-04 06:53 | 18.86855 | 117.97180 | 40941 ft | 504 kts | 135° |
| 2026-05-04 06:54 | 18.82078 | 118.02608 | 40939 ft | 504 kts | 135° |
| 2026-05-04 06:54 | 18.77298 | 118.08033 | 40942 ft | 504 kts | 135° |
| 2026-05-04 06:55 | 18.72518 | 118.13454 | 40941 ft | 504 kts | 135° |
| 2026-05-04 06:55 | 18.67732 | 118.18876 | 40937 ft | 504 kts | 135° |
| 2026-05-04 06:57 | 18.48651 | 118.40449 | 40933 ft | 503 kts | 135° |
| 2026-05-04 06:58 | 18.43875 | 118.45837 | 40931 ft | 503 kts | 135° |
| 2026-05-04 06:58 | 18.39137 | 118.51177 | 40925 ft | 503 kts | 135° |
| 2026-05-04 06:59 | 18.34356 | 118.56561 | 40925 ft | 503 kts | 135° |
| 2026-05-04 06:59 | 18.29604 | 118.61908 | 40924 ft | 503 kts | 135° |
| 2026-05-04 07:01 | 18.10480 | 118.83379 | 40920 ft | 502 kts | 135° |
| 2026-05-04 07:02 | 18.05697 | 118.88738 | 40916 ft | 502 kts | 135° |
| 2026-05-04 07:02 | 18.00886 | 118.94070 | 40910 ft | 501 kts | 138° |
| 2026-05-04 07:03 | 17.98219 | 118.96330 | 40913 ft | 497 kts | 149° |
| 2026-05-04 07:03 | 17.95283 | 118.98239 | 40909 ft | 496 kts | 152° |
| 2026-05-04 07:03 | 17.89267 | 119.01798 | 40909 ft | 496 kts | 154° |
| 2026-05-04 07:04 | 17.83204 | 119.05258 | 40909 ft | 496 kts | 154° |
| 2026-05-04 07:04 | 17.77139 | 119.08735 | 40906 ft | 496 kts | 153° |
| 2026-05-04 07:05 | 17.71103 | 119.12221 | 40905 ft | 496 kts | 153° |
| 2026-05-04 07:05 | 17.65053 | 119.15721 | 40905 ft | 496 kts | 153° |
| 2026-05-04 07:06 | 17.56024 | 119.20942 | 40902 ft | 496 kts | 153° |
| 2026-05-04 07:07 | 17.49981 | 119.24431 | 40902 ft | 496 kts | 153° |
| 2026-05-04 07:08 | 17.28812 | 119.36630 | 40080 ft | 498 kts | 153° |
| 2026-05-04 07:09 | 17.25771 | 119.38379 | 39955 ft | 499 kts | 153° |
| 2026-05-04 07:09 | 17.22769 | 119.40106 | 39838 ft | 499 kts | 153° |
| 2026-05-04 07:09 | 17.19726 | 119.41855 | 39716 ft | 500 kts | 153° |
| 2026-05-04 07:09 | 17.16671 | 119.43611 | 39597 ft | 500 kts | 153° |
| 2026-05-04 07:10 | 17.13616 | 119.45367 | 39479 ft | 501 kts | 153° |
| 2026-05-04 07:10 | 17.10565 | 119.47120 | 39366 ft | 501 kts | 153° |
| 2026-05-04 07:12 | 16.89150 | 119.59401 | 38890 ft | 501 kts | 153° |
| 2026-05-04 07:12 | 16.83034 | 119.62902 | 38889 ft | 501 kts | 153° |
| 2026-05-04 07:13 | 16.76930 | 119.66395 | 38886 ft | 501 kts | 153° |
| 2026-05-04 07:13 | 16.70854 | 119.69868 | 38884 ft | 500 kts | 153° |
| 2026-05-04 07:14 | 16.55591 | 119.78583 | 38891 ft | 500 kts | 154° |
| 2026-05-04 07:15 | 16.49485 | 119.82065 | 38882 ft | 499 kts | 154° |
| 2026-05-04 07:15 | 16.43393 | 119.85536 | 38888 ft | 499 kts | 154° |
| 2026-05-04 07:16 | 16.37354 | 119.88975 | 38890 ft | 499 kts | 154° |
| 2026-05-04 07:16 | 16.31306 | 119.92415 | 38662 ft | 497 kts | 154° |
| 2026-05-04 07:17 | 16.28277 | 119.94139 | 38490 ft | 496 kts | 154° |
| 2026-05-04 07:17 | 16.25254 | 119.95858 | 38201 ft | 495 kts | 154° |
| 2026-05-04 07:17 | 16.22225 | 119.97579 | 37891 ft | 496 kts | 154° |
| 2026-05-04 07:17 | 16.19196 | 119.99299 | 37481 ft | 493 kts | 154° |
| 2026-05-04 07:18 | 16.16191 | 120.01005 | 36871 ft | 491 kts | 154° |
| 2026-05-04 07:18 | 16.13191 | 120.02708 | 36233 ft | 491 kts | 154° |
| 2026-05-04 07:18 | 16.10183 | 120.04414 | 35575 ft | 492 kts | 154° |
| 2026-05-04 07:18 | 16.07196 | 120.06108 | 35065 ft | 489 kts | 154° |
| 2026-05-04 07:19 | 16.04209 | 120.07802 | 34542 ft | 486 kts | 154° |
| 2026-05-04 07:19 | 16.01245 | 120.09484 | 34048 ft | 484 kts | 154° |
| 2026-05-04 07:19 | 15.98287 | 120.11160 | 33504 ft | 483 kts | 154° |
| 2026-05-04 07:19 | 15.95342 | 120.12828 | 32967 ft | 480 kts | 154° |
| 2026-05-04 07:20 | 15.92453 | 120.14465 | 32465 ft | 477 kts | 154° |
| 2026-05-04 07:20 | 15.89547 | 120.16110 | 31967 ft | 474 kts | 154° |
| 2026-05-04 07:20 | 15.86660 | 120.17743 | 31468 ft | 471 kts | 153° |
| 2026-05-04 07:20 | 15.83792 | 120.19365 | 30973 ft | 468 kts | 153° |
| 2026-05-04 07:22 | 15.64214 | 120.30436 | 27353 ft | 447 kts | 153° |
| 2026-05-04 07:22 | 15.61519 | 120.31957 | 26838 ft | 444 kts | 153° |
| 2026-05-04 07:23 | 15.58817 | 120.33478 | 26341 ft | 440 kts | 152° |
| 2026-05-04 07:23 | 15.56134 | 120.34989 | 25848 ft | 437 kts | 152° |
| 2026-05-04 07:23 | 15.53469 | 120.36487 | 25491 ft | 431 kts | 152° |
| 2026-05-04 07:23 | 15.50878 | 120.37946 | 25371 ft | 418 kts | 152° |
| 2026-05-04 07:24 | 15.48359 | 120.39371 | 25214 ft | 407 kts | 152° |
| 2026-05-04 07:24 | 15.45896 | 120.40758 | 25044 ft | 397 kts | 152° |
| 2026-05-04 07:24 | 15.43502 | 120.42106 | 24853 ft | 386 kts | 152° |
| 2026-05-04 07:24 | 15.41148 | 120.43322 | 24244 ft | 374 kts | 159° |
| 2026-05-04 07:25 | 15.38728 | 120.44168 | 23750 ft | 361 kts | 162° |
| 2026-05-04 07:26 | 15.22665 | 120.49244 | 21012 ft | 338 kts | 162° |
| 2026-05-04 07:27 | 15.20422 | 120.49955 | 20646 ft | 336 kts | 162° |
| 2026-05-04 07:27 | 15.18187 | 120.50664 | 20259 ft | 335 kts | 162° |
| 2026-05-04 07:27 | 15.15962 | 120.51370 | 19883 ft | 333 kts | 162° |
| 2026-05-04 07:27 | 15.13752 | 120.52070 | 19510 ft | 332 kts | 162° |
| 2026-05-04 07:28 | 15.11544 | 120.52771 | 19135 ft | 331 kts | 162° |
| 2026-05-04 07:28 | 15.09345 | 120.53468 | 18761 ft | 330 kts | 162° |
| 2026-05-04 07:28 | 15.07145 | 120.54166 | 18386 ft | 329 kts | 162° |
| 2026-05-04 07:28 | 15.04960 | 120.54858 | 17981 ft | 328 kts | 162° |
| 2026-05-04 07:29 | 15.02782 | 120.55547 | 17584 ft | 326 kts | 162° |
| 2026-05-04 07:29 | 15.00646 | 120.56223 | 17217 ft | 324 kts | 162° |
| 2026-05-04 07:29 | 14.98500 | 120.56903 | 16852 ft | 321 kts | 162° |
| 2026-05-04 07:29 | 14.96368 | 120.57578 | 16476 ft | 319 kts | 162° |
| 2026-05-04 07:30 | 14.94247 | 120.58252 | 16121 ft | 317 kts | 161° |
| 2026-05-04 07:30 | 14.92125 | 120.58927 | 15545 ft | 321 kts | 161° |
| 2026-05-04 07:30 | 14.90012 | 120.59594 | 15041 ft | 315 kts | 161° |
| 2026-05-04 07:30 | 14.87914 | 120.60255 | 14651 ft | 314 kts | 161° |
| 2026-05-04 07:31 | 14.85837 | 120.60910 | 14298 ft | 312 kts | 161° |
| 2026-05-04 07:31 | 14.83769 | 120.61563 | 13946 ft | 310 kts | 161° |
| 2026-05-04 07:33 | 14.69880 | 120.65951 | 11693 ft | 285 kts | 161° |
| 2026-05-04 07:33 | 14.67987 | 120.66549 | 11376 ft | 284 kts | 161° |
| 2026-05-04 07:33 | 14.66128 | 120.67136 | 11068 ft | 283 kts | 160° |
| 2026-05-04 07:33 | 14.64271 | 120.67722 | 10925 ft | 273 kts | 160° |
| 2026-05-04 07:34 | 14.62488 | 120.68287 | 10812 ft | 263 kts | 160° |
| 2026-05-04 07:34 | 14.60817 | 120.69012 | 10524 ft | 259 kts | 149° |
| 2026-05-04 07:34 | 14.59253 | 120.69915 | 10239 ft | 256 kts | 147° |
| 2026-05-04 07:34 | 14.57712 | 120.70832 | 9974 ft | 254 kts | 147° |
| 2026-05-04 07:35 | 14.56168 | 120.71745 | 9771 ft | 254 kts | 147° |
| 2026-05-04 07:35 | 14.54647 | 120.72638 | 9637 ft | 249 kts | 147° |
| 2026-05-04 07:35 | 14.53034 | 120.73298 | 9443 ft | 254 kts | 168° |
| 2026-05-04 07:35 | 14.51285 | 120.73070 | 9157 ft | 258 kts | 204° |
| 2026-05-04 07:36 | 14.49933 | 120.71886 | 8888 ft | 258 kts | 235° |
| 2026-05-04 07:36 | 14.49011 | 120.70311 | 8611 ft | 260 kts | 241° |
| 2026-05-04 07:38 | 14.40673 | 120.64474 | 6748 ft | 236 kts | 146° |
| 2026-05-04 07:38 | 14.39265 | 120.65336 | 6505 ft | 235 kts | 146° |
| 2026-05-04 07:38 | 14.37876 | 120.66174 | 6266 ft | 233 kts | 146° |
| 2026-05-04 07:38 | 14.36478 | 120.67006 | 6022 ft | 231 kts | 147° |
| 2026-05-04 07:39 | 14.35107 | 120.67853 | 5776 ft | 228 kts | 142° |
| 2026-05-04 07:39 | 14.34051 | 120.69027 | 5542 ft | 222 kts | 115° |
| 2026-05-04 07:39 | 14.33720 | 120.70549 | 5310 ft | 218 kts | 86° |
| 2026-05-04 07:39 | 14.34151 | 120.72034 | 5085 ft | 218 kts | 64° |
| 2026-05-04 07:40 | 14.34906 | 120.73393 | 4840 ft | 219 kts | 60° |
| 2026-05-04 07:40 | 14.35728 | 120.74718 | 4612 ft | 219 kts | 59° |
| 2026-05-04 07:40 | 14.36513 | 120.76053 | 4432 ft | 214 kts | 61° |
| 2026-05-04 07:40 | 14.37239 | 120.77358 | 4358 ft | 205 kts | 61° |
| 2026-05-04 07:41 | 14.37696 | 120.78189 | 4326 ft | 199 kts | 62° |
| 2026-05-04 07:41 | 14.38371 | 120.79408 | 4373 ft | 195 kts | 62° |
| 2026-05-04 07:41 | 14.39048 | 120.80612 | 4212 ft | 191 kts | 62° |
| 2026-05-04 07:41 | 14.39704 | 120.81801 | 4017 ft | 189 kts | 61° |
| 2026-05-04 07:42 | 14.40348 | 120.82964 | 3770 ft | 186 kts | 62° |
| 2026-05-04 07:42 | 14.40989 | 120.84122 | 3457 ft | 186 kts | 62° |
| 2026-05-04 07:42 | 14.41620 | 120.85262 | 3180 ft | 185 kts | 61° |
| 2026-05-04 07:42 | 14.42246 | 120.86392 | 2931 ft | 176 kts | 62° |
| 2026-05-04 07:43 | 14.42835 | 120.87456 | 2715 ft | 166 kts | 61° |
| 2026-05-04 07:43 | 14.43396 | 120.88467 | 2517 ft | 162 kts | 62° |
| 2026-05-04 07:43 | 14.43937 | 120.89447 | 2316 ft | 152 kts | 62° |
| 2026-05-04 07:43 | 14.44449 | 120.90373 | 2132 ft | 146 kts | 61° |
| 2026-05-04 07:44 | 14.44945 | 120.91271 | 1948 ft | 141 kts | 61° |
| 2026-05-04 07:44 | 14.45424 | 120.92131 | 1763 ft | 135 kts | 63° |
| 2026-05-04 07:44 | 14.45878 | 120.92957 | 1612 ft | 130 kts | 61° |
| 2026-05-04 07:44 | 14.46325 | 120.93763 | 1430 ft | 128 kts | 62° |
| 2026-05-04 07:45 | 14.46769 | 120.94568 | 1275 ft | 131 kts | 61° |
| 2026-05-04 07:45 | 14.47240 | 120.95387 | 1151 ft | 135 kts | 61° |
| 2026-05-04 07:45 | 14.47698 | 120.96229 | 950 ft | 133 kts | 64° |
| 2026-05-04 07:45 | 14.48155 | 120.97063 | 705 ft | 132 kts | 63° |
| 2026-05-04 07:46 | 14.48606 | 120.97864 | 640 ft | 133 kts | 67° |
| 2026-05-04 07:46 | 14.49063 | 120.98715 | 425 ft | 138 kts | 62° |
| 2026-05-04 07:46 | 14.49547 | 120.99540 | 238 ft | 132 kts | 57° |
| 2026-05-04 07:46 | 14.49997 | 121.00364 | 106 ft | 134 kts | 65° |
| 2026-05-04 07:47 | 14.50425 | 121.01144 | 66 ft | 99 kts | 62° |
| 2026-05-04 07:47 | 14.50618 | 121.01505 | 66 ft | 38 kts | 61° |
| 2026-05-04 07:47 | 14.50741 | 121.01691 | 65 ft | 27 kts | 47° |
| 2026-05-04 07:49 | 14.51192 | 121.02261 | 67 ft | 17 kts | 60° |
| 2026-05-04 07:49 | 14.51255 | 121.02375 | 67 ft | 20 kts | 60° |
| 2026-05-04 07:49 | 14.51304 | 121.02476 | 69 ft | 12 kts | 78° |
| 2026-05-04 07:50 | 14.51303 | 121.02491 | 69 ft | 0 kts | 97° |
| 2026-05-04 07:51 | 14.51295 | 121.02509 | 67 ft | 6 kts | 119° |
| 2026-05-04 07:51 | 14.51254 | 121.02544 | 67 ft | 10 kts | 156° |
| 2026-05-04 07:51 | 14.51183 | 121.02517 | 65 ft | 14 kts | 231° |
| 2026-05-04 07:52 | 14.51123 | 121.02409 | 70 ft | 20 kts | 241° |
| 2026-05-04 07:52 | 14.51044 | 121.02265 | 73 ft | 26 kts | 239° |
| 2026-05-04 07:52 | 14.50948 | 121.02098 | 69 ft | 26 kts | 239° |
| 2026-05-04 07:52 | 14.50988 | 121.01969 | 65 ft | 17 kts | 315° |
| 2026-05-04 07:53 | 14.51080 | 121.01874 | 70 ft | 20 kts | 315° |
| 2026-05-04 07:54 | 14.51483 | 121.01566 | 64 ft | 8 kts | 310° |
| 2026-05-04 07:55 | 14.51531 | 121.01513 | 64 ft | 12 kts | 314° |
| 2026-05-04 07:55 | 14.51588 | 121.01458 | 66 ft | 5 kts | 337° |
| 2026-05-04 07:55 | 14.51611 | 121.01466 | 67 ft | 3 kts | 31° |
| 2026-05-04 07:55 | 14.51636 | 121.01490 | 66 ft | 7 kts | 44° |
| 2026-05-04 07:56 | 14.51657 | 121.01512 | 67 ft | 0 kts | 44° |